Time,TemperatureF,DewpointF,PressureIn,WindDirection,WindDirectionDegrees,WindSpeedMPH,WindSpeedGustMPH,Humidity,HourlyPrecipIn,Conditions,Clouds,dailyrainin,SoftwareType,DateUTC
2013-04-02 00:05:00,58.1,56.4,30.05,SE,144,0.0,10.0,94,0.00,,,0.00,Wunderground v.1.15,2013-04-02 05:05:00,
2013-04-02 00:15:00,58.0,56.3,30.04,SE,144,0.0,0.0,94,0.00,,,0.00,Wunderground v.1.15,2013-04-02 05:15:00,
2013-04-02 00:20:00,57.9,56.2,30.04,SE,144,0.0,0.0,94,0.00,,,0.00,Wunderground v.1.15,2013-04-02 05:20:00,
2013-04-02 00:25:00,57.8,56.1,30.04,SE,144,0.0,0.0,94,0.00,,,0.00,Wunderground v.1.15,2013-04-02 05:25:00,
2013-04-02 00:30:00,57.6,55.9,30.04,SE,144,0.0,0.0,94,0.00,,,0.00,Wunderground v.1.15,2013-04-02 05:30:00,
2013-04-02 00:40:00,57.5,55.5,30.04,SE,141,0.0,1.0,93,0.00,,,0.00,Wunderground v.1.15,2013-04-02 05:40:00,
2013-04-02 00:45:00,58.0,54.5,30.04,SE,130,0.0,1.0,88,0.00,,,0.00,Wunderground v.1.15,2013-04-02 05:45:00,
2013-04-02 00:50:00,58.8,54.0,30.04,East,85,0.0,1.0,84,0.00,,,0.00,Wunderground v.1.15,2013-04-02 05:50:00,
2013-04-02 00:55:00,59.3,55.1,30.04,East,93,1.0,1.0,86,0.00,,,0.00,Wunderground v.1.15,2013-04-02 05:55:00,
2013-04-02 01:00:00,59.2,56.0,30.04,SE,131,1.0,1.0,89,0.00,,,0.00,Wunderground v.1.15,2013-04-02 06:00:00,
2013-04-02 01:05:00,58.6,56.0,30.04,SE,131,1.0,1.0,91,0.00,,,0.00,Wunderground v.1.15,2013-04-02 06:05:00,
2013-04-02 01:10:00,58.0,55.7,30.04,SE,131,0.0,0.0,92,0.00,,,0.00,Wunderground v.1.15,2013-04-02 06:10:00,
2013-04-02 01:15:00,57.7,54.5,30.03,SE,131,0.0,0.0,89,0.00,,,0.00,Wunderground v.1.15,2013-04-02 06:15:00,
2013-04-02 01:20:00,57.7,55.1,30.03,SE,131,0.0,0.0,91,0.00,,,0.00,Wunderground v.1.15,2013-04-02 06:20:00,
2013-04-02 01:25:00,57.4,55.1,30.04,SE,131,0.0,0.0,92,0.00,,,0.00,Wunderground v.1.15,2013-04-02 06:25:00,
2013-04-02 01:30:00,57.1,55.1,30.04,SE,131,0.0,0.0,93,0.00,,,0.00,Wunderground v.1.15,2013-04-02 06:30:00,
2013-04-02 01:35:00,56.9,54.9,30.05,SE,131,0.0,0.0,93,0.00,,,0.00,Wunderground v.1.15,2013-04-02 06:35:00,
2013-04-02 01:45:00,56.7,54.4,30.05,SE,131,0.0,0.0,92,0.00,,,0.00,Wunderground v.1.15,2013-04-02 06:45:00,
2013-04-02 01:50:00,57.0,55.0,30.04,SE,131,0.0,0.0,93,0.00,,,0.00,Wunderground v.1.15,2013-04-02 06:50:00,
2013-04-02 01:55:00,57.2,54.6,30.05,SE,131,0.0,0.0,91,0.00,,,0.00,Wunderground v.1.15,2013-04-02 06:55:00,
2013-04-02 02:00:00,57.1,53.9,30.05,SE,131,0.0,0.0,89,0.00,,,0.00,Wunderground v.1.15,2013-04-02 07:00:00,
2013-04-02 02:05:00,57.2,53.7,30.05,SE,131,0.0,0.0,88,0.00,,,0.00,Wunderground v.1.15,2013-04-02 07:05:00,
2013-04-02 02:15:00,57.8,54.0,30.04,SE,131,0.0,0.0,87,0.00,,,0.00,Wunderground v.1.15,2013-04-02 07:15:00,
2013-04-02 02:20:00,57.9,54.1,30.04,SE,131,0.0,0.0,87,0.00,,,0.00,Wunderground v.1.15,2013-04-02 07:20:00,
2013-04-02 02:25:00,57.9,53.7,30.04,SE,131,0.0,0.0,86,0.00,,,0.00,Wunderground v.1.15,2013-04-02 07:25:00,
2013-04-02 02:30:00,57.7,53.9,30.04,SE,131,0.0,0.0,87,0.00,,,0.00,Wunderground v.1.15,2013-04-02 07:30:00,
2013-04-02 02:35:00,57.4,53.6,30.04,SE,131,0.0,0.0,87,0.00,,,0.00,Wunderground v.1.15,2013-04-02 07:35:00,
2013-04-02 02:40:00,57.4,54.5,30.04,SE,131,0.0,0.0,90,0.00,,,0.00,Wunderground v.1.15,2013-04-02 07:40:00,
2013-04-02 02:45:00,57.2,54.3,30.03,SE,131,0.0,0.0,90,0.00,,,0.00,Wunderground v.1.15,2013-04-02 07:45:00,
2013-04-02 02:50:00,56.7,53.8,30.03,SE,131,0.0,0.0,90,0.00,,,0.00,Wunderground v.1.15,2013-04-02 07:50:00,
2013-04-02 02:55:00,56.5,53.9,30.03,SE,131,0.0,0.0,91,0.00,,,0.00,Wunderground v.1.15,2013-04-02 07:55:00,
2013-04-02 03:00:00,56.4,54.4,30.03,SE,131,0.0,1.0,93,0.00,,,0.00,Wunderground v.1.15,2013-04-02 08:00:00,
2013-04-02 03:05:00,56.3,54.6,30.04,SE,134,1.0,1.0,94,0.00,,,0.00,Wunderground v.1.15,2013-04-02 08:05:00,
2013-04-02 03:10:00,56.1,54.4,30.03,SE,134,0.0,0.0,94,0.00,,,0.00,Wunderground v.1.15,2013-04-02 08:10:00,
2013-04-02 03:20:00,55.3,53.9,30.03,SE,134,0.0,0.0,95,0.00,,,0.00,Wunderground v.1.15,2013-04-02 08:20:00,
2013-04-02 03:25:00,55.2,53.8,30.03,SE,134,0.0,0.0,95,0.00,,,0.00,Wunderground v.1.15,2013-04-02 08:25:00,
2013-04-02 03:30:00,55.0,53.6,30.03,SE,134,0.0,0.0,95,0.00,,,0.00,Wunderground v.1.15,2013-04-02 08:30:00,
2013-04-02 03:35:00,54.8,53.4,30.03,SE,134,0.0,0.0,95,0.00,,,0.00,Wunderground v.1.15,2013-04-02 08:35:00,
2013-04-02 03:40:00,54.9,53.8,30.02,SE,134,0.0,0.0,96,0.00,,,0.00,Wunderground v.1.15,2013-04-02 08:40:00,
2013-04-02 03:50:00,54.8,53.7,30.02,SE,134,0.0,0.0,96,0.00,,,0.00,Wunderground v.1.15,2013-04-02 08:50:00,
2013-04-02 03:55:00,54.7,53.6,30.02,SE,134,0.0,0.0,96,0.00,,,0.00,Wunderground v.1.15,2013-04-02 08:55:00,
2013-04-02 04:00:00,54.8,53.7,30.03,SE,134,0.0,0.0,96,0.00,,,0.00,Wunderground v.1.15,2013-04-02 09:00:00,
2013-04-02 04:05:00,55.0,54.2,30.03,SE,134,0.0,0.0,97,0.00,,,0.00,Wunderground v.1.15,2013-04-02 09:05:00,
2013-04-02 04:10:00,54.8,53.7,30.03,SE,134,0.0,0.0,96,0.00,,,0.00,Wunderground v.1.15,2013-04-02 09:10:00,
2013-04-02 04:15:00,54.6,53.5,30.03,SE,134,0.0,0.0,96,0.00,,,0.00,Wunderground v.1.15,2013-04-02 09:15:00,
2013-04-02 04:25:00,54.9,53.5,30.03,SE,134,0.0,0.0,95,0.00,,,0.00,Wunderground v.1.15,2013-04-02 09:25:00,
2013-04-02 04:30:00,55.0,53.3,30.03,SE,134,0.0,0.0,94,0.00,,,0.00,Wunderground v.1.15,2013-04-02 09:30:00,
2013-04-02 04:35:00,55.0,53.3,30.03,SE,137,0.0,1.0,94,0.00,,,0.00,Wunderground v.1.15,2013-04-02 09:35:00,
2013-04-02 04:40:00,54.8,53.4,30.02,SE,137,0.0,0.0,95,0.00,,,0.00,Wunderground v.1.15,2013-04-02 09:40:00,
2013-04-02 04:45:00,54.6,53.2,30.03,SE,136,0.0,0.0,95,0.00,,,0.00,Wunderground v.1.15,2013-04-02 09:45:00,
2013-04-02 04:55:00,54.3,53.2,30.03,SE,136,0.0,0.0,96,0.00,,,0.00,Wunderground v.1.15,2013-04-02 09:55:00,
2013-04-02 05:00:00,54.0,52.9,30.03,SE,136,0.0,0.0,96,0.00,,,0.00,Wunderground v.1.15,2013-04-02 10:00:00,
2013-04-02 05:05:00,54.2,53.4,30.04,SE,136,0.0,0.0,97,0.00,,,0.00,Wunderground v.1.15,2013-04-02 10:05:00,
2013-04-02 05:10:00,54.8,53.7,30.04,SE,137,0.0,0.0,96,0.00,,,0.00,Wunderground v.1.15,2013-04-02 10:10:00,
2013-04-02 05:15:00,55.1,53.4,30.04,SE,137,0.0,0.0,94,0.00,,,0.00,Wunderground v.1.15,2013-04-02 10:15:00,
2013-04-02 05:20:00,55.1,53.7,30.03,SE,136,0.0,0.0,95,0.00,,,0.00,Wunderground v.1.15,2013-04-02 10:20:00,
2013-04-02 05:30:00,54.9,53.5,30.04,SE,137,0.0,0.0,95,0.00,,,0.00,Wunderground v.1.15,2013-04-02 10:30:00,
2013-04-02 05:35:00,54.5,53.1,30.04,SE,136,0.0,0.0,95,0.00,,,0.00,Wunderground v.1.15,2013-04-02 10:35:00,
2013-04-02 05:40:00,54.3,52.9,30.04,SE,136,0.0,0.0,95,0.00,,,0.00,Wunderground v.1.15,2013-04-02 10:40:00,
2013-04-02 05:45:00,54.2,53.1,30.05,SE,136,0.0,0.0,96,0.00,,,0.00,Wunderground v.1.15,2013-04-02 10:45:00,
2013-04-02 05:50:00,54.2,53.1,30.05,SE,136,0.0,0.0,96,0.00,,,0.00,Wunderground v.1.15,2013-04-02 10:50:00,
2013-04-02 06:00:00,53.9,52.8,30.06,SE,136,0.0,0.0,96,0.00,,,0.00,Wunderground v.1.15,2013-04-02 11:00:00,
2013-04-02 06:05:00,54.1,53.3,30.06,SE,136,0.0,0.0,97,0.00,,,0.00,Wunderground v.1.15,2013-04-02 11:05:00,
2013-04-02 06:10:00,54.1,53.3,30.06,SE,136,0.0,1.0,97,0.00,,,0.00,Wunderground v.1.15,2013-04-02 11:10:00,
2013-04-02 06:15:00,54.1,53.3,30.06,SE,136,0.0,1.0,97,0.00,,,0.00,Wunderground v.1.15,2013-04-02 11:15:00,
2013-04-02 06:20:00,53.9,52.8,30.06,SE,136,0.0,0.0,96,0.00,,,0.00,Wunderground v.1.15,2013-04-02 11:20:00,
2013-04-02 06:25:00,54.0,53.2,30.06,SE,136,0.0,0.0,97,0.00,,,0.00,Wunderground v.1.15,2013-04-02 11:25:00,
2013-04-02 06:30:00,54.5,53.7,30.06,SE,136,0.0,0.0,97,0.00,,,0.00,Wunderground v.1.15,2013-04-02 11:30:00,
2013-04-02 06:35:00,54.5,53.4,30.06,SE,136,0.0,0.0,96,0.00,,,0.00,Wunderground v.1.15,2013-04-02 11:35:00,
2013-04-02 06:40:00,54.4,53.3,30.07,SE,136,0.0,0.0,96,0.00,,,0.00,Wunderground v.1.15,2013-04-02 11:40:00,
2013-04-02 06:45:00,53.9,52.8,30.07,SE,136,0.0,0.0,96,0.00,,,0.00,Wunderground v.1.15,2013-04-02 11:45:00,
2013-04-02 06:50:00,53.6,52.5,30.07,SE,136,0.0,0.0,96,0.00,,,0.00,Wunderground v.1.15,2013-04-02 11:50:00,
2013-04-02 06:55:00,53.5,52.4,30.07,SE,136,0.0,0.0,96,0.00,,,0.00,Wunderground v.1.15,2013-04-02 11:55:00,
2013-04-02 07:05:00,53.4,52.6,30.07,SE,136,0.0,0.0,97,0.00,,,0.00,Wunderground v.1.15,2013-04-02 12:05:00,
2013-04-02 07:10:00,53.3,52.5,30.07,SE,136,0.0,0.0,97,0.00,,,0.00,Wunderground v.1.15,2013-04-02 12:10:00,
2013-04-02 07:15:00,53.3,52.5,30.07,SE,136,0.0,1.0,97,0.00,,,0.00,Wunderground v.1.15,2013-04-02 12:15:00,
2013-04-02 07:20:00,53.2,52.4,30.07,SE,136,1.0,1.0,97,0.00,,,0.00,Wunderground v.1.15,2013-04-02 12:20:00,
2013-04-02 07:25:00,52.9,52.1,30.07,SE,136,1.0,1.0,97,0.00,,,0.00,Wunderground v.1.15,2013-04-02 12:25:00,
2013-04-02 07:35:00,52.6,51.8,30.07,SE,136,0.0,0.0,97,0.00,,,0.00,Wunderground v.1.15,2013-04-02 12:35:00,
2013-04-02 07:40:00,52.7,51.9,30.07,SE,136,0.0,0.0,97,0.00,,,0.00,Wunderground v.1.15,2013-04-02 12:40:00,
2013-04-02 07:45:00,52.9,52.1,30.07,SE,136,0.0,0.0,97,0.00,,,0.00,Wunderground v.1.15,2013-04-02 12:45:00,
2013-04-02 07:50:00,53.7,53.1,30.07,East,80,0.0,0.0,98,0.00,,,0.00,Wunderground v.1.15,2013-04-02 12:50:00,
2013-04-02 07:55:00,54.8,54.2,30.07,ENE,63,1.0,2.0,98,0.00,,,0.00,Wunderground v.1.15,2013-04-02 12:55:00,
2013-04-02 08:00:00,55.7,55.1,30.07,East,88,1.0,1.0,98,0.00,,,0.00,Wunderground v.1.15,2013-04-02 13:00:00,
2013-04-02 08:10:00,57.0,55.9,30.08,ESE,108,1.0,1.0,96,0.00,,,0.00,Wunderground v.1.15,2013-04-02 13:10:00,
2013-04-02 08:15:00,58.2,56.8,30.08,ESE,106,0.0,2.0,95,0.00,,,0.00,Wunderground v.1.15,2013-04-02 13:15:00,
2013-04-02 08:20:00,58.9,56.6,30.08,ESE,110,1.0,2.0,92,0.00,,,0.00,Wunderground v.1.15,2013-04-02 13:20:00,
2013-04-02 08:25:00,59.3,57.0,30.08,SSE,165,2.0,2.0,92,0.00,,,0.00,Wunderground v.1.15,2013-04-02 13:25:00,
2013-04-02 08:30:00,59.9,56.6,30.09,East,101,2.0,3.0,89,0.00,,,0.00,Wunderground v.1.15,2013-04-02 13:30:00,
2013-04-02 08:40:00,60.8,57.5,30.09,SSE,148,2.0,2.0,89,0.00,,,0.00,Wunderground v.1.15,2013-04-02 13:40:00,
2013-04-02 08:45:00,61.3,57.7,30.08,ESE,119,2.0,2.0,88,0.00,,,0.00,Wunderground v.1.15,2013-04-02 13:45:00,
2013-04-02 08:50:00,61.7,58.1,30.08,SE,129,2.0,2.0,88,0.00,,,0.00,Wunderground v.1.15,2013-04-02 13:50:00,
2013-04-02 08:55:00,62.2,58.3,30.08,East,92,2.0,2.0,87,0.00,,,0.00,Wunderground v.1.15,2013-04-02 13:55:00,
2013-04-02 09:00:00,62.5,58.9,30.08,ESE,105,2.0,3.0,88,0.00,,,0.00,Wunderground v.1.15,2013-04-02 14:00:00,
2013-04-02 09:05:00,62.5,58.9,30.08,East,92,2.0,3.0,88,0.00,,,0.00,Wunderground v.1.15,2013-04-02 14:05:00,
2013-04-02 09:15:00,63.0,59.4,30.07,ENE,60,4.0,6.0,88,0.00,,,0.00,Wunderground v.1.15,2013-04-02 14:15:00,
2013-04-02 09:20:00,63.2,59.6,30.07,East,88,4.0,6.0,88,0.00,,,0.00,Wunderground v.1.15,2013-04-02 14:20:00,
2013-04-02 09:25:00,63.2,59.3,30.08,SE,138,4.0,6.0,87,0.00,,,0.00,Wunderground v.1.15,2013-04-02 14:25:00,
2013-04-02 09:30:00,63.4,60.1,30.07,East,91,4.0,8.0,89,0.00,,,0.00,Wunderground v.1.15,2013-04-02 14:30:00,
2013-04-02 09:35:00,63.7,60.4,30.07,East,93,4.0,8.0,89,0.00,,,0.00,Wunderground v.1.15,2013-04-02 14:35:00,
2013-04-02 09:45:00,64.1,60.5,30.07,East,82,5.0,5.0,88,0.00,,,0.00,Wunderground v.1.15,2013-04-02 14:45:00,
2013-04-02 09:50:00,64.4,60.8,30.08,SE,133,4.0,4.0,88,0.00,,,0.00,Wunderground v.1.15,2013-04-02 14:50:00,
2013-04-02 09:55:00,64.7,61.1,30.08,East,79,3.0,4.0,88,0.00,,,0.00,Wunderground v.1.15,2013-04-02 14:55:00,
2013-04-02 10:00:00,64.9,60.9,30.08,ENE,72,3.0,3.0,87,0.00,,,0.00,Wunderground v.1.15,2013-04-02 15:00:00,
2013-04-02 10:05:00,65.3,61.3,30.08,ESE,109,3.0,3.0,87,0.00,,,0.00,Wunderground v.1.15,2013-04-02 15:05:00,
2013-04-02 10:10:00,66.1,62.1,30.08,ESE,110,3.0,3.0,87,0.00,,,0.00,Wunderground v.1.15,2013-04-02 15:10:00,
2013-04-02 10:20:00,66.8,62.1,30.09,SE,146,2.0,3.0,85,0.00,,,0.00,Wunderground v.1.15,2013-04-02 15:20:00,
2013-04-02 10:25:00,67.1,62.1,30.09,ESE,116,3.0,4.0,84,0.00,,,0.00,Wunderground v.1.15,2013-04-02 15:25:00,
2013-04-02 10:30:00,67.5,61.8,30.09,SE,141,3.0,3.0,82,0.00,,,0.00,Wunderground v.1.15,2013-04-02 15:30:00,
2013-04-02 10:35:00,67.9,61.9,30.09,ESE,102,3.0,3.0,81,0.00,,,0.00,Wunderground v.1.15,2013-04-02 15:35:00,
2013-04-02 10:40:00,68.4,62.0,30.10,South,188,3.0,3.0,80,0.00,,,0.00,Wunderground v.1.15,2013-04-02 15:40:00,
2013-04-02 10:45:00,69.2,62.0,30.10,SSE,148,3.0,3.0,78,0.00,,,0.00,Wunderground v.1.15,2013-04-02 15:45:00,
2013-04-02 10:50:00,69.5,62.0,30.10,SE,137,4.0,4.0,77,0.00,,,0.00,Wunderground v.1.15,2013-04-02 15:50:00,
2013-04-02 10:55:00,69.8,61.9,30.10,SSE,163,4.0,8.0,76,0.00,,,0.00,Wunderground v.1.15,2013-04-02 15:55:00,
2013-04-02 11:00:00,70.2,61.9,30.10,SE,135,5.0,5.0,75,0.00,,,0.00,Wunderground v.1.15,2013-04-02 16:00:00,
2013-04-02 11:05:00,71.1,62.0,30.10,SE,138,5.0,5.0,73,0.00,,,0.00,Wunderground v.1.15,2013-04-02 16:05:00,
2013-04-02 11:10:00,71.9,62.0,30.10,SSE,153,6.0,6.0,71,0.00,,,0.00,Wunderground v.1.15,2013-04-02 16:10:00,
2013-04-02 11:20:00,73.3,61.7,30.09,SE,146,6.0,7.0,67,0.00,,,0.00,Wunderground v.1.15,2013-04-02 16:20:00,
2013-04-02 11:25:00,73.4,61.8,30.09,ESE,121,6.0,7.0,67,0.00,,,0.00,Wunderground v.1.15,2013-04-02 16:25:00,
2013-04-02 11:30:00,74.0,61.0,30.09,SE,129,6.0,7.0,64,0.00,,,0.00,Wunderground v.1.15,2013-04-02 16:30:00,
2013-04-02 11:36:00,73.9,60.5,30.09,East,98,6.0,9.0,63,0.00,,,0.00,Wunderground v.1.15,2013-04-02 16:36:00,
2013-04-02 11:45:00,74.1,57.9,30.08,ESE,121,9.0,9.0,57,0.00,,,0.00,Wunderground v.1.15,2013-04-02 16:45:00,
2013-04-02 11:55:00,74.6,58.8,30.07,SE,146,8.0,9.0,58,0.00,,,0.00,Wunderground v.1.15,2013-04-02 16:55:00,
2013-04-02 12:00:00,75.0,59.2,30.07,SE,139,8.0,12.0,58,0.00,,,0.00,Wunderground v.1.15,2013-04-02 17:00:00,
2013-04-02 12:05:00,75.1,59.3,30.07,SE,135,9.0,12.0,58,0.00,,,0.00,Wunderground v.1.15,2013-04-02 17:05:00,
2013-04-02 12:10:00,74.7,58.9,30.06,ESE,119,9.0,12.0,58,0.00,,,0.00,Wunderground v.1.15,2013-04-02 17:10:00,
2013-04-02 12:15:00,75.0,59.2,30.06,SSE,158,9.0,12.0,58,0.00,,,0.00,Wunderground v.1.15,2013-04-02 17:15:00,
2013-04-02 12:20:00,75.1,60.3,30.06,SE,131,8.0,8.0,60,0.00,,,0.00,Wunderground v.1.15,2013-04-02 17:20:00,
2013-04-02 12:25:00,75.6,59.3,30.05,East,94,8.0,8.0,57,0.00,,,0.00,Wunderground v.1.15,2013-04-02 17:25:00,
2013-04-02 12:30:00,76.0,58.7,30.06,SSE,159,9.0,9.0,55,0.00,,,0.00,Wunderground v.1.15,2013-04-02 17:30:00,
2013-04-02 12:35:00,76.1,58.8,30.05,ESE,118,7.0,9.0,55,0.00,,,0.00,Wunderground v.1.15,2013-04-02 17:35:00,
2013-04-02 12:40:00,76.2,60.8,30.05,ESE,111,7.0,9.0,59,0.00,,,0.00,Wunderground v.1.15,2013-04-02 17:40:00,
2013-04-02 12:45:00,76.2,59.9,30.05,East,101,8.0,9.0,57,0.00,,,0.00,Wunderground v.1.15,2013-04-02 17:45:00,
2013-04-02 12:50:00,76.5,58.6,30.05,SSE,154,8.0,8.0,54,0.00,,,0.00,Wunderground v.1.15,2013-04-02 17:50:00,
2013-04-02 13:00:00,77.0,58.0,30.04,SE,134,8.0,8.0,52,0.00,,,0.00,Wunderground v.1.15,2013-04-02 18:00:00,
2013-04-02 13:05:00,77.0,59.1,30.03,SE,145,8.0,11.0,54,0.00,,,0.00,Wunderground v.1.15,2013-04-02 18:05:00,
2013-04-02 13:10:00,77.2,57.1,30.04,SE,141,8.0,10.0,50,0.00,,,0.00,Wunderground v.1.15,2013-04-02 18:10:00,
2013-04-02 13:15:00,77.2,57.7,30.03,SE,140,8.0,10.0,51,0.00,,,0.00,Wunderground v.1.15,2013-04-02 18:15:00,
2013-04-02 13:20:00,77.5,58.5,30.03,SE,134,8.0,8.0,52,0.00,,,0.00,Wunderground v.1.15,2013-04-02 18:20:00,
2013-04-02 13:30:00,77.4,58.4,30.02,ESE,120,7.0,10.0,52,0.00,,,0.00,Wunderground v.1.15,2013-04-02 18:30:00,
2013-04-02 13:35:00,77.4,56.7,30.02,SE,131,7.0,11.0,49,0.00,,,0.00,Wunderground v.1.15,2013-04-02 18:35:00,
2013-04-02 13:40:00,77.2,57.7,30.01,SE,127,8.0,8.0,51,0.00,,,0.00,Wunderground v.1.15,2013-04-02 18:40:00,
2013-04-02 13:45:00,77.7,57.6,30.01,ESE,108,7.0,8.0,50,0.00,,,0.00,Wunderground v.1.15,2013-04-02 18:45:00,
2013-04-02 14:00:00,77.7,58.1,30.00,East,88,6.0,6.0,51,0.00,,,0.00,Wunderground v.1.15,2013-04-02 19:00:00,
2013-04-02 14:10:00,77.5,58.5,30.00,SE,125,5.0,5.0,52,0.00,,,0.00,Wunderground v.1.15,2013-04-02 19:10:00,
2013-04-02 14:15:00,77.3,57.2,30.00,SE,141,5.0,6.0,50,0.00,,,0.00,Wunderground v.1.15,2013-04-02 19:15:00,
2013-04-02 14:20:00,77.2,57.7,30.00,SE,130,6.0,6.0,51,0.00,,,0.00,Wunderground v.1.15,2013-04-02 19:20:00,
2013-04-02 14:25:00,77.1,58.1,30.00,ESE,120,5.0,6.0,52,0.00,,,0.00,Wunderground v.1.15,2013-04-02 19:25:00,
2013-04-02 14:30:00,77.2,57.7,30.00,SE,131,5.0,5.0,51,0.00,,,0.00,Wunderground v.1.15,2013-04-02 19:30:00,
2013-04-02 14:35:00,76.9,57.4,29.99,SSE,151,5.0,7.0,51,0.00,,,0.00,Wunderground v.1.15,2013-04-02 19:35:00,
2013-04-02 14:45:00,76.6,58.2,29.99,SE,135,6.0,7.0,53,0.00,,,0.00,Wunderground v.1.15,2013-04-02 19:45:00,
2013-04-02 14:50:00,76.7,59.3,29.99,SE,125,6.0,6.0,55,0.00,,,0.00,Wunderground v.1.15,2013-04-02 19:50:00,
2013-04-02 15:00:00,76.9,58.5,29.98,East,95,6.0,6.0,53,0.00,,,0.00,Wunderground v.1.15,2013-04-02 20:00:00,
2013-04-02 15:05:00,76.8,58.4,29.98,SSE,152,6.0,6.0,53,0.00,,,0.00,Wunderground v.1.15,2013-04-02 20:05:00,
2013-04-02 15:10:00,76.9,57.9,29.98,SE,139,6.0,8.0,52,0.00,,,0.00,Wunderground v.1.15,2013-04-02 20:10:00,
2013-04-02 15:20:00,76.8,57.3,29.98,SE,133,6.0,6.0,51,0.00,,,0.00,Wunderground v.1.15,2013-04-02 20:20:00,
2013-04-02 15:25:00,76.6,57.1,29.98,SE,139,6.0,6.0,51,0.00,,,0.00,Wunderground v.1.15,2013-04-02 20:25:00,
2013-04-02 15:30:00,76.5,56.5,29.98,East,101,5.0,5.0,50,0.00,,,0.00,Wunderground v.1.15,2013-04-02 20:30:00,
2013-04-02 15:35:00,77.2,57.1,29.98,SE,140,5.0,5.0,50,0.00,,,0.00,Wunderground v.1.15,2013-04-02 20:35:00,
2013-04-02 15:40:00,77.8,57.1,29.97,SE,141,6.0,7.0,49,0.00,,,0.00,Wunderground v.1.15,2013-04-02 20:40:00,
2013-04-02 15:45:00,77.7,57.0,29.98,SE,139,6.0,7.0,49,0.00,,,0.00,Wunderground v.1.15,2013-04-02 20:45:00,
2013-04-02 15:55:00,77.5,56.8,29.97,South,176,5.0,6.0,49,0.00,,,0.00,Wunderground v.1.15,2013-04-02 20:55:00,
2013-04-02 16:00:00,77.6,56.9,29.97,SE,146,5.0,5.0,49,0.00,,,0.00,Wunderground v.1.15,2013-04-02 21:00:00,
2013-04-02 16:05:00,77.9,56.6,29.97,SE,142,5.0,5.0,48,0.00,,,0.00,Wunderground v.1.15,2013-04-02 21:05:00,
2013-04-02 16:10:00,77.9,57.2,29.97,SE,127,5.0,5.0,49,0.00,,,0.00,Wunderground v.1.15,2013-04-02 21:10:00,
2013-04-02 16:15:00,77.5,57.4,29.96,SE,127,6.0,6.0,50,0.00,,,0.00,Wunderground v.1.15,2013-04-02 21:15:00,
2013-04-02 16:25:00,76.9,57.4,29.96,SSE,147,5.0,6.0,51,0.00,,,0.00,Wunderground v.1.15,2013-04-02 21:25:00,
2013-04-02 16:30:00,76.9,57.4,29.97,SSE,148,5.0,5.0,51,0.00,,,0.00,Wunderground v.1.15,2013-04-02 21:30:00,
2013-04-02 16:35:00,76.9,57.9,29.97,SE,136,5.0,5.0,52,0.00,,,0.00,Wunderground v.1.15,2013-04-02 21:35:00,
2013-04-02 16:40:00,77.1,57.0,29.97,SE,142,4.0,4.0,50,0.00,,,0.00,Wunderground v.1.15,2013-04-02 21:40:00,
2013-04-02 16:45:00,77.1,57.6,29.97,South,171,3.0,4.0,51,0.00,,,0.00,Wunderground v.1.15,2013-04-02 21:45:00,
2013-04-02 16:50:00,76.9,57.4,29.97,SSE,147,4.0,4.0,51,0.00,,,0.00,Wunderground v.1.15,2013-04-02 21:50:00,
2013-04-02 17:00:00,76.7,57.2,29.98,SSE,166,4.0,5.0,51,0.00,,,0.00,Wunderground v.1.15,2013-04-02 22:00:00,
2013-04-02 17:05:00,76.6,57.7,29.98,South,176,4.0,5.0,52,0.00,,,0.00,Wunderground v.1.15,2013-04-02 22:05:00,
2013-04-02 17:10:00,76.5,57.6,29.97,South,183,4.0,4.0,52,0.00,,,0.00,Wunderground v.1.15,2013-04-02 22:10:00,
2013-04-02 17:15:00,76.3,57.9,29.97,SSE,163,3.0,4.0,53,0.00,,,0.00,Wunderground v.1.15,2013-04-02 22:15:00,
2013-04-02 17:25:00,76.0,57.6,29.97,South,189,2.0,3.0,53,0.00,,,0.00,Wunderground v.1.15,2013-04-02 22:25:00,
2013-04-02 17:30:00,76.0,58.2,29.97,South,172,2.0,2.0,54,0.00,,,0.00,Wunderground v.1.15,2013-04-02 22:30:00,
2013-04-02 17:35:00,76.0,58.2,29.97,South,183,3.0,3.0,54,0.00,,,0.00,Wunderground v.1.15,2013-04-02 22:35:00,
2013-04-02 17:40:00,76.1,58.8,29.97,South,190,2.0,2.0,55,0.00,,,0.00,Wunderground v.1.15,2013-04-02 22:40:00,
2013-04-02 17:45:00,76.4,60.0,29.97,WSW,240,1.0,2.0,57,0.00,,,0.00,Wunderground v.1.15,2013-04-02 22:45:00,
2013-04-02 17:50:00,76.6,58.7,29.97,SW,231,2.0,3.0,54,0.00,,,0.00,Wunderground v.1.15,2013-04-02 22:50:00,
2013-04-02 17:55:00,77.1,58.1,29.97,SW,226,1.0,3.0,52,0.00,,,0.00,Wunderground v.1.15,2013-04-02 22:55:00,
2013-04-02 18:05:00,77.2,58.2,29.97,WSW,242,0.0,1.0,52,0.00,,,0.00,Wunderground v.1.15,2013-04-02 23:05:00,
2013-04-02 18:10:00,77.9,58.3,29.97,WSW,241,0.0,1.0,51,0.00,,,0.00,Wunderground v.1.15,2013-04-02 23:10:00,
2013-04-02 18:15:00,78.1,58.5,29.97,SSW,212,1.0,1.0,51,0.00,,,0.00,Wunderground v.1.15,2013-04-02 23:15:00,
2013-04-02 18:20:00,77.6,58.0,29.97,South,177,1.0,1.0,51,0.00,,,0.00,Wunderground v.1.15,2013-04-02 23:20:00,
2013-04-02 18:25:00,76.9,57.9,29.97,South,176,0.0,1.0,52,0.00,,,0.00,Wunderground v.1.15,2013-04-02 23:25:00,
2013-04-02 18:30:00,76.4,60.0,29.97,South,176,0.0,0.0,57,0.00,,,0.00,Wunderground v.1.15,2013-04-02 23:30:00,
2013-04-02 18:35:00,75.8,61.4,29.97,South,175,0.0,1.0,61,0.00,,,0.00,Wunderground v.1.15,2013-04-02 23:35:00,
2013-04-02 18:45:00,74.6,60.3,29.96,South,175,0.0,0.0,61,0.00,,,0.00,Wunderground v.1.15,2013-04-02 23:45:00,
2013-04-02 18:50:00,74.1,59.8,29.96,South,175,0.0,0.0,61,0.00,,,0.00,Wunderground v.1.15,2013-04-02 23:50:00,
2013-04-02 18:55:00,73.7,59.9,29.96,SE,145,0.0,0.0,62,0.00,,,0.00,Wunderground v.1.15,2013-04-02 23:55:00,
2013-04-02 19:00:00,73.4,60.5,29.96,SE,145,0.0,0.0,64,0.00,,,0.00,Wunderground v.1.15,2013-04-03 00:00:00,
2013-04-02 19:05:00,73.0,59.2,29.96,SE,145,0.0,0.0,62,0.00,,,0.00,Wunderground v.1.15,2013-04-03 00:05:00,
2013-04-02 19:15:00,72.8,60.8,29.96,SE,145,0.0,0.0,66,0.00,,,0.00,Wunderground v.1.15,2013-04-03 00:15:00,
2013-04-02 19:20:00,72.0,62.9,29.96,SE,145,0.0,0.0,73,0.00,,,0.00,Wunderground v.1.15,2013-04-03 00:20:00,
2013-04-02 19:30:00,69.8,61.5,29.96,SE,135,1.0,1.0,75,0.00,,,0.00,Wunderground v.1.15,2013-04-03 00:30:00,
2013-04-02 19:35:00,68.9,61.8,29.95,SE,146,1.0,1.0,78,0.00,,,0.00,Wunderground v.1.15,2013-04-03 00:35:00,
2013-04-02 19:40:00,68.8,59.8,29.95,ESE,108,1.0,1.0,73,0.00,,,0.00,Wunderground v.1.15,2013-04-03 00:40:00,
2013-04-02 19:50:00,69.0,60.0,29.95,ESE,103,1.0,3.0,73,0.00,,,0.00,Wunderground v.1.15,2013-04-03 00:50:00,
2013-04-02 19:55:00,69.9,59.7,29.96,ESE,103,2.0,3.0,70,0.00,,,0.00,Wunderground v.1.15,2013-04-03 00:55:00,
2013-04-02 20:00:00,70.3,59.6,29.96,ESE,110,2.0,2.0,69,0.00,,,0.00,Wunderground v.1.15,2013-04-03 01:00:00,
2013-04-02 20:05:00,70.5,59.4,29.96,ESE,120,2.0,2.0,68,0.00,,,0.00,Wunderground v.1.15,2013-04-03 01:05:00,
2013-04-02 20:15:00,70.5,59.8,29.95,ESE,109,2.0,3.0,69,0.00,,,0.00,Wunderground v.1.15,2013-04-03 01:15:00,
2013-04-02 20:20:00,70.2,60.4,29.95,ESE,109,3.0,3.0,71,0.00,,,0.00,Wunderground v.1.15,2013-04-03 01:20:00,
2013-04-02 20:25:00,70.1,59.9,29.94,ESE,105,3.0,3.0,70,0.00,,,0.00,Wunderground v.1.15,2013-04-03 01:25:00,
2013-04-02 20:30:00,70.0,59.8,29.95,SE,132,4.0,4.0,70,0.00,,,0.00,Wunderground v.1.15,2013-04-03 01:30:00,
2013-04-02 20:35:00,69.6,59.8,29.95,ESE,123,4.0,4.0,71,0.00,,,0.00,Wunderground v.1.15,2013-04-03 01:35:00,
2013-04-02 20:40:00,69.7,59.9,29.96,SE,126,4.0,4.0,71,0.00,,,0.00,Wunderground v.1.15,2013-04-03 01:40:00,
2013-04-02 20:45:00,69.4,60.4,29.96,SE,132,3.0,4.0,73,0.00,,,0.00,Wunderground v.1.15,2013-04-03 01:45:00,
2013-04-02 20:50:00,69.3,60.7,29.96,ESE,120,3.0,3.0,74,0.00,,,0.00,Wunderground v.1.15,2013-04-03 01:50:00,
2013-04-02 20:55:00,69.4,60.0,29.96,ESE,113,3.0,3.0,72,0.00,,,0.00,Wunderground v.1.15,2013-04-03 01:55:00,
2013-04-02 21:05:00,69.8,60.4,29.96,ESE,106,3.0,3.0,72,0.00,,,0.00,Wunderground v.1.15,2013-04-03 02:05:00,
2013-04-02 21:10:00,69.9,60.1,29.95,ESE,103,4.0,5.0,71,0.00,,,0.00,Wunderground v.1.15,2013-04-03 02:10:00,
2013-04-02 21:15:00,69.9,60.1,29.95,East,94,5.0,10.0,71,0.00,,,0.00,Wunderground v.1.15,2013-04-03 02:15:00,
2013-04-02 21:20:00,70.1,59.9,29.95,ESE,105,6.0,6.0,70,0.00,,,0.00,Wunderground v.1.15,2013-04-03 02:20:00,
2013-04-02 21:25:00,70.2,59.6,29.95,SE,129,7.0,7.0,69,0.00,,,0.00,Wunderground v.1.15,2013-04-03 02:25:00,
2013-04-02 21:35:00,70.0,59.4,29.94,ESE,103,6.0,7.0,69,0.00,,,0.00,Wunderground v.1.15,2013-04-03 02:35:00,
2013-04-02 21:40:00,69.9,59.7,29.95,ENE,70,5.0,5.0,70,0.00,,,0.00,Wunderground v.1.15,2013-04-03 02:40:00,
2013-04-02 21:50:00,69.6,59.4,29.95,ESE,109,5.0,5.0,70,0.00,,,0.00,Wunderground v.1.15,2013-04-03 02:50:00,
2013-04-02 21:55:00,69.4,59.6,29.95,East,98,5.0,5.0,71,0.00,,,0.00,Wunderground v.1.15,2013-04-03 02:55:00,
2013-04-02 22:00:00,69.3,59.5,29.95,East,98,5.0,5.0,71,0.00,,,0.00,Wunderground v.1.15,2013-04-03 03:00:00,
2013-04-02 22:05:00,69.1,60.1,29.96,SE,129,6.0,7.0,73,0.00,,,0.00,Wunderground v.1.15,2013-04-03 03:05:00,
2013-04-02 22:15:00,68.7,59.7,29.96,SE,124,6.0,6.0,73,0.00,,,0.00,Wunderground v.1.15,2013-04-03 03:15:00,
2013-04-02 22:20:00,68.5,59.9,29.96,ESE,117,6.0,6.0,74,0.00,,,0.00,Wunderground v.1.15,2013-04-03 03:20:00,
2013-04-02 22:25:00,68.4,59.8,29.96,ESE,109,5.0,6.0,74,0.00,,,0.00,Wunderground v.1.15,2013-04-03 03:25:00,
2013-04-02 22:30:00,68.4,60.2,29.97,SE,143,5.0,6.0,75,0.00,,,0.00,Wunderground v.1.15,2013-04-03 03:30:00,
2013-04-02 22:35:00,68.4,59.8,29.98,SE,141,6.0,6.0,74,0.00,,,0.00,Wunderground v.1.15,2013-04-03 03:35:00,
2013-04-02 22:45:00,68.2,60.0,29.97,ESE,109,4.0,5.0,75,0.00,,,0.00,Wunderground v.1.15,2013-04-03 03:45:00,
2013-04-02 22:50:00,68.3,60.1,29.97,ESE,106,3.0,3.0,75,0.00,,,0.00,Wunderground v.1.15,2013-04-03 03:50:00,
2013-04-02 22:55:00,68.3,60.1,29.96,ESE,110,4.0,5.0,75,0.00,,,0.00,Wunderground v.1.15,2013-04-03 03:55:00,
2013-04-02 23:00:00,68.2,60.0,29.96,ESE,117,4.0,6.0,75,0.00,,,0.00,Wunderground v.1.15,2013-04-03 04:00:00,
2013-04-02 23:05:00,68.2,60.3,29.96,SE,129,5.0,6.0,76,0.00,,,0.00,Wunderground v.1.15,2013-04-03 04:05:00,
2013-04-02 23:10:00,68.1,60.2,29.94,ESE,103,5.0,5.0,76,0.00,,,0.00,Wunderground v.1.15,2013-04-03 04:10:00,
2013-04-02 23:15:00,68.1,60.2,29.94,ESE,108,5.0,5.0,76,0.00,,,0.00,Wunderground v.1.15,2013-04-03 04:15:00,
2013-04-02 23:20:00,68.0,60.5,29.93,ESE,110,5.0,5.0,77,0.00,,,0.00,Wunderground v.1.15,2013-04-03 04:20:00,
2013-04-02 23:25:00,67.9,60.8,29.93,ESE,120,6.0,6.0,78,0.00,,,0.00,Wunderground v.1.15,2013-04-03 04:25:00,
2013-04-02 23:30:00,67.8,60.7,29.93,SE,139,6.0,6.0,78,0.00,,,0.00,Wunderground v.1.15,2013-04-03 04:30:00,
2013-04-02 23:35:00,67.8,61.0,29.94,SSE,149,5.0,6.0,79,0.00,,,0.00,Wunderground v.1.15,2013-04-03 04:35:00,
2013-04-02 23:45:00,67.9,61.1,29.94,ESE,113,5.0,7.0,79,0.00,,,0.00,Wunderground v.1.15,2013-04-03 04:45:00,
2013-04-02 23:50:00,67.9,61.5,29.94,ESE,121,5.0,5.0,80,0.00,,,0.00,Wunderground v.1.15,2013-04-03 04:50:00,
2013-04-02 23:55:00,67.9,61.5,29.93,SE,146,6.0,6.0,80,0.00,,,0.00,Wunderground v.1.15,2013-04-03 04:55:00,